Time,TemperatureF,DewpointF,PressureIn,WindDirection,WindDirectionDegrees,WindSpeedMPH,WindSpeedGustMPH,Humidity,HourlyPrecipIn,Conditions,Clouds,dailyrainin,SoftwareType,DateUTC
2013-08-29 00:01:00,77.7,77.4,29.91,SE,135,0.0,0.0,99,0.00,,,0.00,meteohub,2013-08-29 04:01:00,
2013-08-29 00:02:00,77.5,77.2,29.91,SE,135,0.0,0.0,99,0.00,,,0.00,meteohub,2013-08-29 04:02:00,
2013-08-29 00:03:00,77.5,77.2,29.91,SE,135,0.0,0.0,99,0.00,,,0.00,meteohub,2013-08-29 04:03:00,
2013-08-29 00:06:00,77.5,77.2,29.91,SE,135,0.0,0.0,99,0.00,,,0.00,meteohub,2013-08-29 04:06:00,
2013-08-29 00:11:00,77.4,77.0,29.90,SE,135,0.0,0.0,99,0.00,,,0.00,meteohub,2013-08-29 04:11:00,
2013-08-29 00:13:00,77.4,77.0,29.90,SE,135,0.0,0.0,99,0.00,,,0.00,meteohub,2013-08-29 04:13:00,
2013-08-29 00:18:00,77.2,76.8,29.90,SE,135,0.0,0.0,99,0.00,,,0.00,meteohub,2013-08-29 04:18:00,
2013-08-29 00:23:00,77.2,76.8,29.90,SE,135,0.0,0.0,99,0.00,,,0.00,meteohub,2013-08-29 04:23:00,
2013-08-29 00:28:00,77.0,76.6,29.90,SE,135,0.0,0.0,99,0.00,,,0.00,meteohub,2013-08-29 04:28:00,
2013-08-29 00:33:00,77.0,76.6,29.90,SE,135,0.0,0.0,99,0.00,,,0.00,meteohub,2013-08-29 04:33:00,
2013-08-29 00:38:00,77.0,76.6,29.90,SE,135,0.0,0.0,99,0.00,,,0.00,meteohub,2013-08-29 04:38:00,
2013-08-29 00:44:00,77.0,76.6,29.89,South,180,0.0,0.0,99,0.00,,,0.00,meteohub,2013-08-29 04:44:00,
2013-08-29 00:49:00,77.0,76.6,29.89,South,180,0.0,0.0,99,0.00,,,0.00,meteohub,2013-08-29 04:49:00,
2013-08-29 00:54:00,77.0,76.6,29.90,South,180,0.0,0.0,99,0.00,,,0.00,meteohub,2013-08-29 04:54:00,
2013-08-29 00:59:00,77.0,76.6,29.89,SW,225,0.0,0.0,99,0.00,,,0.00,meteohub,2013-08-29 04:59:00,
2013-08-29 01:04:00,77.2,76.8,29.89,SW,225,0.0,0.0,99,0.00,,,0.00,meteohub,2013-08-29 05:04:00,
2013-08-29 01:09:00,77.0,76.6,29.89,SW,225,0.0,0.0,99,0.00,,,0.00,meteohub,2013-08-29 05:09:00,
2013-08-29 01:14:00,77.0,76.6,29.89,SW,225,0.0,0.0,99,0.00,,,0.00,meteohub,2013-08-29 05:14:00,
2013-08-29 01:19:00,77.2,76.8,29.89,SW,225,0.0,0.0,99,0.00,,,0.00,meteohub,2013-08-29 05:19:00,
2013-08-29 01:24:00,77.4,77.0,29.89,NW,315,0.0,0.0,99,0.00,,,0.00,meteohub,2013-08-29 05:24:00,
2013-08-29 01:29:00,77.4,77.0,29.89,West,270,2.0,2.0,99,0.00,,,0.00,meteohub,2013-08-29 05:29:00,
2013-08-29 01:34:00,77.2,76.8,29.88,West,270,1.0,2.0,99,0.00,,,0.00,meteohub,2013-08-29 05:34:00,
2013-08-29 01:39:00,77.2,76.8,29.89,West,270,0.0,2.0,99,0.00,,,0.00,meteohub,2013-08-29 05:39:00,
2013-08-29 01:45:00,77.0,76.6,29.88,North,0,1.0,2.0,99,0.00,,,0.00,meteohub,2013-08-29 05:45:00,
2013-08-29 01:50:00,77.0,76.6,29.89,SW,225,1.0,2.0,99,0.00,,,0.00,meteohub,2013-08-29 05:50:00,
2013-08-29 01:55:00,76.8,76.5,29.88,SW,225,0.0,2.0,99,0.00,,,0.00,meteohub,2013-08-29 05:55:00,
2013-08-29 02:00:00,76.8,76.5,29.88,West,270,1.0,2.0,99,0.00,,,0.00,meteohub,2013-08-29 06:00:00,
2013-08-29 02:05:00,76.6,76.3,29.88,West,270,0.0,1.0,99,0.00,,,0.00,meteohub,2013-08-29 06:05:00,
2013-08-29 02:10:00,76.5,76.1,29.88,West,270,0.0,1.0,99,0.00,,,0.00,meteohub,2013-08-29 06:10:00,
2013-08-29 02:15:00,76.3,75.9,29.88,West,270,1.0,1.0,99,0.00,,,0.00,meteohub,2013-08-29 06:15:00,
2013-08-29 02:20:00,76.1,75.7,29.88,West,270,0.0,1.0,99,0.00,,,0.00,meteohub,2013-08-29 06:20:00,
2013-08-29 02:25:00,76.1,75.7,29.88,West,270,0.0,1.0,99,0.00,,,0.00,meteohub,2013-08-29 06:25:00,
2013-08-29 02:30:00,76.1,75.7,29.88,West,270,0.0,1.0,99,0.00,,,0.00,meteohub,2013-08-29 06:30:00,
2013-08-29 02:35:00,76.1,75.7,29.88,SW,225,0.0,0.0,99,0.00,,,0.00,meteohub,2013-08-29 06:35:00,
2013-08-29 02:40:00,75.7,75.4,29.88,SW,225,0.0,0.0,99,0.00,,,0.00,meteohub,2013-08-29 06:40:00,
2013-08-29 02:46:00,75.9,75.6,29.88,SW,225,0.0,0.0,99,0.00,,,0.00,meteohub,2013-08-29 06:46:00,
2013-08-29 02:51:00,75.6,75.2,29.88,SW,225,0.0,0.0,99,0.00,,,0.00,meteohub,2013-08-29 06:51:00,
2013-08-29 02:56:00,75.7,75.4,29.87,SW,225,0.0,0.0,99,0.00,,,0.00,meteohub,2013-08-29 06:56:00,
2013-08-29 03:01:00,75.7,75.4,29.87,SW,225,0.0,0.0,99,0.00,,,0.00,meteohub,2013-08-29 07:01:00,
2013-08-29 03:06:00,75.7,75.4,29.87,SW,225,0.0,0.0,99,0.00,,,0.00,meteohub,2013-08-29 07:06:00,
2013-08-29 03:11:00,75.6,75.2,29.87,SW,225,0.0,0.0,99,0.00,,,0.00,meteohub,2013-08-29 07:11:00,
2013-08-29 03:16:00,75.6,75.2,29.87,SW,225,0.0,0.0,99,0.00,,,0.00,meteohub,2013-08-29 07:16:00,
2013-08-29 03:21:00,75.4,75.0,29.87,West,270,0.0,0.0,99,0.00,,,0.00,meteohub,2013-08-29 07:21:00,
2013-08-29 03:26:00,75.4,75.0,29.87,West,270,0.0,0.0,99,0.00,,,0.00,meteohub,2013-08-29 07:26:00,
2013-08-29 03:31:00,75.2,74.8,29.87,West,270,0.0,1.0,99,0.00,,,0.00,meteohub,2013-08-29 07:31:00,
2013-08-29 03:36:00,75.2,74.8,29.87,SW,225,0.0,1.0,99,0.00,,,0.00,meteohub,2013-08-29 07:36:00,
2013-08-29 03:42:00,75.2,74.8,29.87,SW,225,0.0,1.0,99,0.00,,,0.00,meteohub,2013-08-29 07:42:00,
2013-08-29 03:47:00,75.2,74.8,29.87,SW,225,0.0,1.0,99,0.00,,,0.00,meteohub,2013-08-29 07:47:00,
2013-08-29 03:52:00,75.2,74.8,29.86,SW,225,0.0,0.0,99,0.00,,,0.00,meteohub,2013-08-29 07:52:00,
2013-08-29 03:57:00,75.2,74.8,29.86,SW,225,0.0,0.0,99,0.00,,,0.00,meteohub,2013-08-29 07:57:00,
2013-08-29 04:02:00,75.2,74.8,29.86,North,0,1.0,0.0,99,0.00,,,0.00,meteohub,2013-08-29 08:02:00,
2013-08-29 04:07:00,75.2,74.8,29.86,North,0,0.0,1.0,99,0.00,,,0.00,meteohub,2013-08-29 08:07:00,
2013-08-29 04:12:00,75.2,74.8,29.86,North,0,1.0,1.0,99,0.00,,,0.00,meteohub,2013-08-29 08:12:00,
2013-08-29 04:17:00,75.2,74.8,29.86,North,0,1.0,1.0,99,0.00,,,0.00,meteohub,2013-08-29 08:17:00,
2013-08-29 04:22:00,75.2,74.8,29.86,North,0,1.0,1.0,99,0.00,,,0.00,meteohub,2013-08-29 08:22:00,
2013-08-29 04:27:00,75.4,75.0,29.86,West,270,1.0,2.0,99,0.00,,,0.00,meteohub,2013-08-29 08:27:00,
2013-08-29 04:32:00,75.2,74.8,29.86,West,270,0.0,2.0,99,0.00,,,0.00,meteohub,2013-08-29 08:32:00,
2013-08-29 04:37:00,75.2,74.8,29.86,NW,315,1.0,2.0,99,0.00,,,0.00,meteohub,2013-08-29 08:37:00,
2013-08-29 04:42:00,75.2,74.8,29.86,NW,315,0.0,1.0,99,0.00,,,0.00,meteohub,2013-08-29 08:42:00,
2013-08-29 04:47:00,75.0,74.7,29.85,NW,315,0.0,1.0,99,0.00,,,0.00,meteohub,2013-08-29 08:47:00,
2013-08-29 04:52:00,75.0,74.7,29.85,NW,315,0.0,1.0,99,0.00,,,0.00,meteohub,2013-08-29 08:52:00,
2013-08-29 04:57:00,75.0,74.7,29.85,West,270,0.0,1.0,99,0.00,,,0.00,meteohub,2013-08-29 08:57:00,
2013-08-29 05:02:00,75.0,74.7,29.86,West,270,0.0,1.0,99,0.00,,,0.00,meteohub,2013-08-29 09:02:00,
2013-08-29 05:07:00,75.0,74.7,29.86,SW,225,0.0,1.0,99,0.00,,,0.00,meteohub,2013-08-29 09:07:00,
2013-08-29 05:12:00,74.8,74.5,29.85,SW,225,0.0,0.0,99,0.00,,,0.00,meteohub,2013-08-29 09:12:00,
2013-08-29 05:17:00,74.8,74.5,29.85,West,270,0.0,0.0,99,0.00,,,0.00,meteohub,2013-08-29 09:17:00,
2013-08-29 05:22:00,75.0,74.7,29.86,NW,315,0.0,1.0,99,0.00,,,0.00,meteohub,2013-08-29 09:22:00,
2013-08-29 05:27:00,74.8,74.5,29.86,NW,315,1.0,1.0,99,0.00,,,0.00,meteohub,2013-08-29 09:27:00,
2013-08-29 05:32:00,74.8,74.5,29.85,NW,315,0.0,1.0,99,0.00,,,0.00,meteohub,2013-08-29 09:32:00,
2013-08-29 05:37:00,75.0,74.7,29.85,NW,315,0.0,1.0,99,0.00,,,0.00,meteohub,2013-08-29 09:37:00,
2013-08-29 05:42:00,75.0,74.7,29.86,North,0,1.0,1.0,99,0.00,,,0.00,meteohub,2013-08-29 09:42:00,
2013-08-29 05:47:00,75.0,74.7,29.86,NW,315,0.0,1.0,99,0.00,,,0.00,meteohub,2013-08-29 09:47:00,
2013-08-29 05:52:00,75.0,74.7,29.85,NW,315,1.0,1.0,99,0.00,,,0.00,meteohub,2013-08-29 09:52:00,
2013-08-29 05:57:00,75.0,74.7,29.86,North,0,1.0,1.0,99,0.00,,,0.00,meteohub,2013-08-29 09:57:00,
2013-08-29 06:02:00,75.0,74.7,29.86,North,0,0.0,1.0,99,0.00,,,0.00,meteohub,2013-08-29 10:02:00,
2013-08-29 06:07:00,75.0,74.7,29.87,North,0,0.0,1.0,99,0.00,,,0.00,meteohub,2013-08-29 10:07:00,
2013-08-29 06:12:00,75.0,74.7,29.87,West,270,0.0,1.0,99,0.00,,,0.00,meteohub,2013-08-29 10:12:00,
2013-08-29 06:17:00,75.0,74.7,29.87,North,0,1.0,1.0,99,0.00,,,0.00,meteohub,2013-08-29 10:17:00,
2013-08-29 06:22:00,75.0,74.7,29.87,North,0,1.0,2.0,99,0.00,,,0.00,meteohub,2013-08-29 10:22:00,
2013-08-29 06:27:00,74.8,74.5,29.87,NW,315,0.0,2.0,99,0.00,,,0.00,meteohub,2013-08-29 10:27:00,
2013-08-29 06:32:00,74.8,74.5,29.87,North,0,1.0,2.0,99,0.00,,,0.00,meteohub,2013-08-29 10:32:00,
2013-08-29 06:37:00,74.8,74.5,29.87,North,0,2.0,2.0,99,0.00,,,0.00,meteohub,2013-08-29 10:37:00,
2013-08-29 06:42:00,74.8,74.5,29.87,North,0,1.0,2.0,99,0.00,,,0.00,meteohub,2013-08-29 10:42:00,
2013-08-29 06:47:00,74.8,74.5,29.87,West,270,0.0,2.0,99,0.00,,,0.00,meteohub,2013-08-29 10:47:00,
2013-08-29 06:52:00,74.7,74.3,29.87,North,0,2.0,2.0,99,0.00,,,0.00,meteohub,2013-08-29 10:52:00,
2013-08-29 06:57:00,74.7,74.3,29.87,North,0,0.0,2.0,99,0.00,,,0.00,meteohub,2013-08-29 10:57:00,
2013-08-29 07:02:00,74.5,74.1,29.88,NW,315,1.0,2.0,99,0.00,,,0.00,meteohub,2013-08-29 11:02:00,
2013-08-29 07:07:00,74.5,74.1,29.87,North,0,0.0,2.0,99,0.00,,,0.00,meteohub,2013-08-29 11:07:00,
2013-08-29 07:12:00,74.3,73.9,29.88,North,0,1.0,1.0,99,0.00,,,0.00,meteohub,2013-08-29 11:12:00,
2013-08-29 07:17:00,74.7,74.3,29.88,North,0,1.0,1.0,99,0.00,,,0.00,meteohub,2013-08-29 11:17:00,
2013-08-29 07:22:00,75.2,74.8,29.87,North,0,0.0,2.0,99,0.00,,,0.00,meteohub,2013-08-29 11:22:00,
2013-08-29 07:27:00,76.1,75.7,29.88,North,0,0.0,2.0,99,0.00,,,0.00,meteohub,2013-08-29 11:27:00,
2013-08-29 07:32:00,77.2,76.8,29.88,North,0,0.0,2.0,99,0.00,,,0.00,meteohub,2013-08-29 11:32:00,
2013-08-29 07:38:00,78.4,78.1,29.88,North,0,0.0,1.0,99,0.00,,,0.00,meteohub,2013-08-29 11:38:00,
2013-08-29 07:43:00,79.7,79.3,29.88,North,0,0.0,0.0,99,0.00,,,0.00,meteohub,2013-08-29 11:43:00,
2013-08-29 07:48:00,80.8,80.4,29.88,East,90,0.0,1.0,99,0.00,,,0.00,meteohub,2013-08-29 11:48:00,
2013-08-29 07:53:00,81.9,81.5,29.88,East,90,0.0,1.0,99,0.00,,,0.00,meteohub,2013-08-29 11:53:00,
2013-08-29 07:58:00,82.4,82.0,29.88,North,0,2.0,2.0,99,0.00,,,0.00,meteohub,2013-08-29 11:58:00,
2013-08-29 08:03:00,83.3,82.9,29.88,North,0,1.0,2.0,99,0.00,,,0.00,meteohub,2013-08-29 12:03:00,
2013-08-29 08:08:00,84.2,83.7,29.88,North,0,1.0,2.0,98,0.00,,,0.00,meteohub,2013-08-29 12:08:00,
2013-08-29 08:13:00,85.3,84.0,29.89,North,0,1.0,2.0,96,0.00,,,0.00,meteohub,2013-08-29 12:13:00,
2013-08-29 08:18:00,86.4,83.8,29.89,East,90,1.0,1.0,92,0.00,,,0.00,meteohub,2013-08-29 12:18:00,
2013-08-29 08:24:00,87.3,82.6,29.89,North,0,1.0,1.0,86,0.00,,,0.00,meteohub,2013-08-29 12:24:00,
2013-08-29 08:29:00,88.0,81.0,29.90,North,0,2.0,2.0,80,0.00,,,0.00,meteohub,2013-08-29 12:29:00,
2013-08-29 08:34:00,88.2,80.8,29.89,North,0,1.0,1.0,79,0.00,,,0.00,meteohub,2013-08-29 12:34:00,
2013-08-29 08:39:00,88.5,80.1,29.89,NW,315,2.0,2.0,76,0.00,,,0.00,meteohub,2013-08-29 12:39:00,
2013-08-29 08:44:00,88.5,80.1,29.89,North,0,1.0,4.0,76,0.00,,,0.00,meteohub,2013-08-29 12:44:00,
2013-08-29 08:49:00,89.2,80.6,29.89,NW,315,1.0,4.0,76,0.00,,,0.00,meteohub,2013-08-29 12:49:00,
2013-08-29 08:54:00,90.0,80.6,29.89,West,270,1.0,4.0,74,0.00,,,0.00,meteohub,2013-08-29 12:54:00,
2013-08-29 08:59:00,90.3,80.1,29.89,North,0,1.0,3.0,72,0.00,,,0.00,meteohub,2013-08-29 12:59:00,
2013-08-29 09:05:00,90.9,79.7,29.90,West,270,2.0,3.0,70,0.00,,,0.00,meteohub,2013-08-29 13:05:00,
2013-08-29 09:10:00,91.4,80.2,29.90,West,270,1.0,3.0,70,0.00,,,0.00,meteohub,2013-08-29 13:10:00,
2013-08-29 09:15:00,91.9,79.3,29.90,North,0,2.0,3.0,67,0.00,,,0.00,meteohub,2013-08-29 13:15:00,
2013-08-29 09:20:00,91.8,79.2,29.89,NW,315,2.0,3.0,67,0.00,,,0.00,meteohub,2013-08-29 13:20:00,
2013-08-29 09:25:00,92.3,80.2,29.89,East,90,2.0,3.0,68,0.00,,,0.00,meteohub,2013-08-29 13:25:00,
2013-08-29 09:30:00,92.5,79.9,29.89,South,180,1.0,3.0,67,0.00,,,0.00,meteohub,2013-08-29 13:30:00,
2013-08-29 09:35:00,92.7,80.1,29.89,North,0,1.0,3.0,67,0.00,,,0.00,meteohub,2013-08-29 13:35:00,
2013-08-29 09:40:00,92.8,79.9,29.89,North,0,1.0,2.0,66,0.00,,,0.00,meteohub,2013-08-29 13:40:00,
2013-08-29 09:45:00,92.8,78.8,29.90,NW,315,2.0,3.0,64,0.00,,,0.00,meteohub,2013-08-29 13:45:00,
2013-08-29 09:50:00,93.2,80.1,29.89,South,180,1.0,3.0,66,0.00,,,0.00,meteohub,2013-08-29 13:50:00,
2013-08-29 09:56:00,93.4,79.3,29.90,NW,315,2.0,3.0,64,0.00,,,0.00,meteohub,2013-08-29 13:56:00,
2013-08-29 10:01:00,93.9,79.3,29.90,NW,315,2.0,3.0,63,0.00,,,0.00,meteohub,2013-08-29 14:01:00,
2013-08-29 10:06:00,94.5,79.3,29.90,NNE,23,3.0,3.0,62,0.00,,,0.00,meteohub,2013-08-29 14:06:00,
2013-08-29 10:11:00,93.9,79.9,29.89,South,180,0.0,3.0,64,0.00,,,0.00,meteohub,2013-08-29 14:11:00,
2013-08-29 10:16:00,94.1,78.6,29.90,East,90,4.0,4.0,61,0.00,,,0.00,meteohub,2013-08-29 14:16:00,
2013-08-29 10:21:00,92.3,78.8,29.89,East,90,2.0,4.0,65,0.00,,,0.00,meteohub,2013-08-29 14:21:00,
2013-08-29 10:26:00,92.7,77.7,29.90,North,0,1.0,4.0,62,0.00,,,0.00,meteohub,2013-08-29 14:26:00,
2013-08-29 10:31:00,92.8,76.8,29.90,North,0,0.0,4.0,60,0.00,,,0.00,meteohub,2013-08-29 14:31:00,
2013-08-29 10:36:00,93.6,78.1,29.90,South,180,0.0,2.0,61,0.00,,,0.00,meteohub,2013-08-29 14:36:00,
2013-08-29 10:41:00,92.8,75.9,29.90,East,90,4.0,4.0,58,0.00,,,0.00,meteohub,2013-08-29 14:41:00,
2013-08-29 10:46:00,92.3,75.4,29.90,SW,225,2.0,4.0,58,0.00,,,0.00,meteohub,2013-08-29 14:46:00,
2013-08-29 10:51:00,92.8,78.4,29.90,East,90,3.0,4.0,63,0.00,,,0.00,meteohub,2013-08-29 14:51:00,
2013-08-29 10:57:00,92.8,77.4,29.89,East,90,2.0,4.0,61,0.00,,,0.00,meteohub,2013-08-29 14:57:00,
2013-08-29 11:02:00,92.3,76.8,29.90,South,180,2.0,4.0,61,0.00,,,0.00,meteohub,2013-08-29 15:02:00,
2013-08-29 11:07:00,92.3,75.4,29.90,South,180,2.0,4.0,58,0.00,,,0.00,meteohub,2013-08-29 15:07:00,
2013-08-29 11:12:00,92.3,76.5,29.90,SW,225,2.0,6.0,60,0.00,,,0.00,meteohub,2013-08-29 15:12:00,
2013-08-29 11:17:00,92.7,77.2,29.90,East,90,1.0,6.0,61,0.00,,,0.00,meteohub,2013-08-29 15:17:00,
2013-08-29 11:22:00,92.3,75.9,29.90,ESE,113,5.0,5.0,59,0.00,,,0.00,meteohub,2013-08-29 15:22:00,
2013-08-29 11:27:00,91.9,76.1,29.90,South,180,1.0,5.0,60,0.00,,,0.00,meteohub,2013-08-29 15:27:00,
2013-08-29 11:32:00,90.5,77.2,29.90,South,180,2.0,5.0,65,0.00,,,0.00,meteohub,2013-08-29 15:32:00,
2013-08-29 11:37:00,90.1,77.7,29.89,East,90,7.0,7.0,67,0.00,,,0.00,meteohub,2013-08-29 15:37:00,
2013-08-29 11:42:00,90.5,77.5,29.89,SE,135,4.0,9.0,66,0.00,,,0.00,meteohub,2013-08-29 15:42:00,
2013-08-29 11:47:00,89.8,77.4,29.90,East,90,7.0,9.0,67,0.00,,,0.00,meteohub,2013-08-29 15:47:00,
2013-08-29 11:52:00,88.2,77.5,29.90,SE,135,6.0,9.0,71,0.00,,,0.00,meteohub,2013-08-29 15:52:00,
2013-08-29 11:57:00,88.5,78.3,29.89,NE,45,4.0,9.0,72,0.00,,,0.00,meteohub,2013-08-29 15:57:00,
2013-08-29 12:02:00,89.4,77.5,29.89,SE,135,6.0,9.0,68,0.00,,,0.00,meteohub,2013-08-29 16:02:00,
2013-08-29 12:07:00,90.0,77.0,29.90,East,90,5.0,8.0,66,0.00,,,0.00,meteohub,2013-08-29 16:07:00,
2013-08-29 12:12:00,90.7,77.7,29.90,East,90,9.0,9.0,66,0.00,,,0.00,meteohub,2013-08-29 16:12:00,
2013-08-29 12:17:00,90.3,77.4,29.90,East,90,4.0,9.0,66,0.00,,,0.00,meteohub,2013-08-29 16:17:00,
2013-08-29 12:22:00,90.0,77.9,29.90,East,90,7.0,10.0,68,0.00,,,0.00,meteohub,2013-08-29 16:22:00,
2013-08-29 12:27:00,90.3,77.4,29.90,East,90,5.0,10.0,66,0.00,,,0.00,meteohub,2013-08-29 16:27:00,
2013-08-29 12:32:00,89.4,77.0,29.90,East,90,8.0,10.0,67,0.00,,,0.00,meteohub,2013-08-29 16:32:00,
2013-08-29 12:37:00,89.4,77.9,29.89,West,270,4.0,12.0,69,0.00,,,0.00,meteohub,2013-08-29 16:37:00,
2013-08-29 12:42:00,89.4,76.6,29.89,NE,45,10.0,12.0,66,0.00,,,0.00,meteohub,2013-08-29 16:42:00,
2013-08-29 12:47:00,89.4,75.2,29.89,NE,45,11.0,12.0,63,0.00,,,0.00,meteohub,2013-08-29 16:47:00,
2013-08-29 12:52:00,89.4,75.6,29.89,East,90,7.0,11.0,64,0.00,,,0.00,meteohub,2013-08-29 16:52:00,
2013-08-29 12:57:00,88.9,74.7,29.88,East,90,5.0,11.0,63,0.00,,,0.00,meteohub,2013-08-29 16:57:00,
2013-08-29 13:02:00,89.4,75.2,29.88,East,90,8.0,11.0,63,0.00,,,0.00,meteohub,2013-08-29 17:02:00,
2013-08-29 13:07:00,90.1,74.8,29.88,East,90,7.0,9.0,61,0.00,,,0.00,meteohub,2013-08-29 17:07:00,
2013-08-29 13:12:00,90.3,75.0,29.88,NE,45,4.0,9.0,61,0.00,,,0.00,meteohub,2013-08-29 17:12:00,
2013-08-29 13:17:00,90.5,73.8,29.87,NE,45,2.0,8.0,58,0.00,,,0.00,meteohub,2013-08-29 17:17:00,
2013-08-29 13:22:00,91.0,74.7,29.88,East,90,4.0,7.0,59,0.00,,,0.00,meteohub,2013-08-29 17:22:00,
2013-08-29 13:27:00,91.0,75.7,29.87,East,90,7.0,8.0,61,0.00,,,0.00,meteohub,2013-08-29 17:27:00,
2013-08-29 13:32:00,91.4,75.6,29.87,SSE,158,6.0,8.0,60,0.00,,,0.00,meteohub,2013-08-29 17:32:00,
2013-08-29 13:37:00,91.4,74.5,29.87,North,0,2.0,8.0,58,0.00,,,0.00,meteohub,2013-08-29 17:37:00,
2013-08-29 13:42:00,91.9,73.9,29.87,East,90,5.0,11.0,56,0.00,,,0.00,meteohub,2013-08-29 17:42:00,
2013-08-29 13:47:00,91.6,74.1,29.87,NE,45,5.0,11.0,57,0.00,,,0.00,meteohub,2013-08-29 17:47:00,
2013-08-29 13:52:00,91.9,75.0,29.87,NE,45,6.0,8.0,58,0.00,,,0.00,meteohub,2013-08-29 17:52:00,
2013-08-29 13:57:00,91.8,74.8,29.86,South,180,2.0,8.0,58,0.00,,,0.00,meteohub,2013-08-29 17:57:00,
2013-08-29 14:02:00,91.9,76.1,29.87,East,90,4.0,8.0,60,0.00,,,0.00,meteohub,2013-08-29 18:02:00,
2013-08-29 14:07:00,91.2,74.3,29.86,NW,315,1.0,10.0,58,0.00,,,0.00,meteohub,2013-08-29 18:07:00,
2013-08-29 14:12:00,91.6,74.1,29.86,SE,135,4.0,10.0,57,0.00,,,0.00,meteohub,2013-08-29 18:12:00,
2013-08-29 14:17:00,91.9,75.0,29.86,SE,135,6.0,10.0,58,0.00,,,0.00,meteohub,2013-08-29 18:17:00,
2013-08-29 14:23:00,92.3,74.8,29.86,SE,135,4.0,8.0,57,0.00,,,0.00,meteohub,2013-08-29 18:23:00,
2013-08-29 14:28:00,92.3,75.4,29.86,South,180,4.0,8.0,58,0.00,,,0.00,meteohub,2013-08-29 18:28:00,
2013-08-29 14:33:00,93.6,75.0,29.86,East,90,8.0,8.0,55,0.00,,,0.00,meteohub,2013-08-29 18:33:00,
2013-08-29 14:38:00,93.9,75.7,29.85,NE,45,7.0,8.0,56,0.00,,,0.00,meteohub,2013-08-29 18:38:00,
2013-08-29 14:43:00,92.8,75.4,29.85,East,90,3.0,8.0,57,0.00,,,0.00,meteohub,2013-08-29 18:43:00,
2013-08-29 14:48:00,92.5,75.0,29.85,East,90,5.0,11.0,57,0.00,,,0.00,meteohub,2013-08-29 18:48:00,
2013-08-29 14:53:00,93.2,76.3,29.84,SE,135,1.0,11.0,58,0.00,,,0.00,meteohub,2013-08-29 18:53:00,
2013-08-29 14:58:00,94.3,75.6,29.84,South,180,1.0,11.0,55,0.00,,,0.00,meteohub,2013-08-29 18:58:00,
2013-08-29 15:03:00,93.4,74.8,29.84,East,90,10.0,10.0,55,0.00,,,0.00,meteohub,2013-08-29 19:03:00,
2013-08-29 15:09:00,93.4,76.8,29.83,SE,135,2.0,11.0,59,0.00,,,0.00,meteohub,2013-08-29 19:09:00,
2013-08-29 15:14:00,93.9,75.7,29.83,East,90,3.0,11.0,56,0.00,,,0.00,meteohub,2013-08-29 19:14:00,
2013-08-29 15:19:00,92.7,76.3,29.83,East,90,6.0,11.0,59,0.00,,,0.00,meteohub,2013-08-29 19:19:00,
2013-08-29 15:24:00,92.8,76.5,29.83,NE,45,7.0,8.0,59,0.00,,,0.00,meteohub,2013-08-29 19:24:00,
2013-08-29 15:29:00,91.6,75.7,29.83,East,90,7.0,8.0,60,0.00,,,0.00,meteohub,2013-08-29 19:29:00,
2013-08-29 15:34:00,90.5,76.1,29.83,SE,135,4.0,8.0,63,0.00,,,0.00,meteohub,2013-08-29 19:34:00,
2013-08-29 15:39:00,90.1,76.8,29.83,East,90,7.0,8.0,65,0.00,,,0.00,meteohub,2013-08-29 19:39:00,
2013-08-29 15:44:00,90.7,76.8,29.83,East,90,5.0,8.0,64,0.00,,,0.00,meteohub,2013-08-29 19:44:00,
2013-08-29 15:49:00,90.9,77.5,29.83,SSW,203,9.0,9.0,65,0.00,,,0.00,meteohub,2013-08-29 19:49:00,
2013-08-29 15:54:00,91.8,77.4,29.83,East,90,8.0,10.0,63,0.00,,,0.00,meteohub,2013-08-29 19:54:00,
2013-08-29 15:59:00,91.0,76.6,29.82,East,90,10.0,10.0,63,0.00,,,0.00,meteohub,2013-08-29 19:59:00,
2013-08-29 16:04:00,89.6,75.7,29.83,ESE,113,7.0,10.0,64,0.00,,,0.00,meteohub,2013-08-29 20:04:00,
2013-08-29 16:10:00,88.3,75.9,29.83,East,90,6.0,10.0,67,0.00,,,0.00,meteohub,2013-08-29 20:10:00,
2013-08-29 16:15:00,89.2,75.9,29.82,East,90,8.0,10.0,65,0.00,,,0.00,meteohub,2013-08-29 20:15:00,
2013-08-29 16:20:00,90.3,75.9,29.82,East,90,8.0,10.0,63,0.00,,,0.00,meteohub,2013-08-29 20:20:00,
2013-08-29 16:25:00,91.8,76.8,29.82,East,90,6.0,10.0,62,0.00,,,0.00,meteohub,2013-08-29 20:25:00,
2013-08-29 16:30:00,91.4,76.1,29.83,East,90,8.0,10.0,61,0.00,,,0.00,meteohub,2013-08-29 20:30:00,
2013-08-29 16:35:00,91.0,75.7,29.83,ESE,113,8.0,11.0,61,0.00,,,0.00,meteohub,2013-08-29 20:35:00,
2013-08-29 16:40:00,91.2,76.3,29.83,East,90,9.0,11.0,62,0.00,,,0.00,meteohub,2013-08-29 20:40:00,
2013-08-29 16:45:00,90.5,75.7,29.83,East,90,8.0,11.0,62,0.00,,,0.00,meteohub,2013-08-29 20:45:00,
2013-08-29 16:50:00,89.6,75.7,29.83,East,90,10.0,11.0,64,0.00,,,0.00,meteohub,2013-08-29 20:50:00,
2013-08-29 16:55:00,89.1,77.2,29.83,East,90,5.0,10.0,68,0.00,,,0.00,meteohub,2013-08-29 20:55:00,
2013-08-29 17:00:00,89.4,77.0,29.83,East,90,9.0,13.0,67,0.00,,,0.00,meteohub,2013-08-29 21:00:00,
2013-08-29 17:05:00,88.2,76.3,29.83,East,90,10.0,13.0,68,0.00,,,0.00,meteohub,2013-08-29 21:05:00,
2013-08-29 17:11:00,88.0,76.5,29.82,East,90,8.0,13.0,69,0.00,,,0.00,meteohub,2013-08-29 21:11:00,
2013-08-29 17:16:00,89.8,76.5,29.83,East,90,6.0,11.0,65,0.00,,,0.00,meteohub,2013-08-29 21:16:00,
2013-08-29 17:21:00,89.2,75.4,29.82,SE,135,8.0,10.0,64,0.00,,,0.00,meteohub,2013-08-29 21:21:00,
2013-08-29 17:26:00,88.7,77.2,29.83,SE,135,11.0,11.0,69,0.00,,,0.00,meteohub,2013-08-29 21:26:00,
2013-08-29 17:31:00,88.9,77.0,29.83,East,90,11.0,11.0,68,0.00,,,0.00,meteohub,2013-08-29 21:31:00,
2013-08-29 17:36:00,88.7,77.2,29.83,East,90,11.0,11.0,69,0.00,,,0.00,meteohub,2013-08-29 21:36:00,
2013-08-29 17:41:00,89.1,76.6,29.83,East,90,9.0,11.0,67,0.00,,,0.00,meteohub,2013-08-29 21:41:00,
2013-08-29 17:46:00,89.2,76.8,29.83,East,90,12.0,12.0,67,0.00,,,0.00,meteohub,2013-08-29 21:46:00,
2013-08-29 17:51:00,89.2,77.7,29.83,SE,135,11.0,12.0,69,0.00,,,0.00,meteohub,2013-08-29 21:51:00,
2013-08-29 17:57:00,88.9,77.0,29.82,SE,135,11.0,13.0,68,0.00,,,0.00,meteohub,2013-08-29 21:57:00,
2013-08-29 18:02:00,89.2,77.7,29.83,East,90,6.0,13.0,69,0.00,,,0.00,meteohub,2013-08-29 22:02:00,
2013-08-29 18:07:00,88.7,78.1,29.83,East,90,7.0,13.0,71,0.00,,,0.00,meteohub,2013-08-29 22:07:00,
2013-08-29 18:12:00,89.2,78.1,29.83,SE,135,5.0,11.0,70,0.00,,,0.00,meteohub,2013-08-29 22:12:00,
2013-08-29 18:17:00,89.2,77.7,29.83,East,90,7.0,11.0,69,0.00,,,0.00,meteohub,2013-08-29 22:17:00,
2013-08-29 18:22:00,88.9,77.4,29.82,East,90,7.0,11.0,69,0.00,,,0.00,meteohub,2013-08-29 22:22:00,
2013-08-29 18:27:00,88.2,77.5,29.82,East,90,9.0,11.0,71,0.00,,,0.00,meteohub,2013-08-29 22:27:00,
2013-08-29 18:32:00,87.8,77.7,29.82,East,90,7.0,11.0,72,0.00,,,0.00,meteohub,2013-08-29 22:32:00,
2013-08-29 18:37:00,86.5,77.7,29.82,East,90,10.0,11.0,75,0.00,,,0.00,meteohub,2013-08-29 22:37:00,
2013-08-29 18:42:00,86.0,77.9,29.81,East,90,7.0,11.0,77,0.00,,,0.00,meteohub,2013-08-29 22:42:00,
2013-08-29 18:47:00,85.8,78.6,29.81,East,90,10.0,10.0,79,0.00,,,0.00,meteohub,2013-08-29 22:47:00,
2013-08-29 18:52:00,85.5,78.3,29.82,East,90,8.0,10.0,79,0.00,,,0.00,meteohub,2013-08-29 22:52:00,
2013-08-29 18:57:00,85.3,77.7,29.81,ENE,68,7.0,10.0,78,0.00,,,0.00,meteohub,2013-08-29 22:57:00,
2013-08-29 19:02:00,85.1,77.0,29.81,East,90,10.0,10.0,77,0.00,,,0.00,meteohub,2013-08-29 23:02:00,
2013-08-29 19:07:00,84.9,76.8,29.81,SE,135,8.0,10.0,77,0.00,,,0.00,meteohub,2013-08-29 23:07:00,
2013-08-29 19:12:00,84.7,77.2,29.81,East,90,8.0,10.0,78,0.00,,,0.00,meteohub,2013-08-29 23:12:00,
2013-08-29 19:17:00,84.7,76.6,29.81,East,90,3.0,10.0,77,0.00,,,0.00,meteohub,2013-08-29 23:17:00,
2013-08-29 19:22:00,84.7,76.3,29.81,NE,45,8.0,10.0,76,0.00,,,0.00,meteohub,2013-08-29 23:22:00,
2013-08-29 19:27:00,84.6,77.0,29.81,ESE,113,7.0,9.0,78,0.00,,,0.00,meteohub,2013-08-29 23:27:00,
2013-08-29 19:32:00,84.4,77.2,29.81,East,90,6.0,8.0,79,0.00,,,0.00,meteohub,2013-08-29 23:32:00,
2013-08-29 19:37:00,84.0,77.2,29.82,South,180,1.0,8.0,80,0.00,,,0.00,meteohub,2013-08-29 23:37:00,
2013-08-29 19:42:00,83.8,77.0,29.82,SE,135,2.0,7.0,80,0.00,,,0.00,meteohub,2013-08-29 23:42:00,
2013-08-29 19:47:00,83.7,76.8,29.82,South,180,2.0,6.0,80,0.00,,,0.00,meteohub,2013-08-29 23:47:00,
2013-08-29 19:52:00,83.5,77.0,29.82,South,180,2.0,6.0,81,0.00,,,0.00,meteohub,2013-08-29 23:52:00,
2013-08-29 19:57:00,83.5,77.0,29.82,South,180,6.0,6.0,81,0.00,,,0.00,meteohub,2013-08-29 23:57:00,
2013-08-29 20:02:00,83.5,77.0,29.82,South,180,0.0,6.0,81,0.00,,,0.00,meteohub,2013-08-30 00:02:00,
2013-08-29 20:07:00,83.3,76.8,29.82,SE,135,2.0,6.0,81,0.00,,,0.00,meteohub,2013-08-30 00:07:00,
2013-08-29 20:12:00,83.3,77.2,29.82,SE,135,1.0,6.0,82,0.00,,,0.00,meteohub,2013-08-30 00:12:00,
2013-08-29 20:17:00,83.1,77.0,29.82,East,90,4.0,4.0,82,0.00,,,0.00,meteohub,2013-08-30 00:17:00,
2013-08-29 20:22:00,83.3,76.8,29.82,East,90,2.0,4.0,81,0.00,,,0.00,meteohub,2013-08-30 00:22:00,
2013-08-29 20:28:00,83.1,77.0,29.83,SE,135,1.0,4.0,82,0.00,,,0.00,meteohub,2013-08-30 00:28:00,
2013-08-29 20:33:00,82.9,77.2,29.83,East,90,1.0,4.0,83,0.00,,,0.00,meteohub,2013-08-30 00:33:00,
2013-08-29 20:38:00,82.9,77.2,29.83,SSE,158,4.0,4.0,83,0.00,,,0.00,meteohub,2013-08-30 00:38:00,
2013-08-29 20:43:00,82.9,77.2,29.84,East,90,2.0,4.0,83,0.00,,,0.00,meteohub,2013-08-30 00:43:00,
2013-08-29 20:48:00,82.8,77.0,29.84,SW,225,2.0,4.0,83,0.00,,,0.00,meteohub,2013-08-30 00:48:00,
2013-08-29 20:53:00,82.6,77.2,29.84,South,180,3.0,4.0,84,0.00,,,0.00,meteohub,2013-08-30 00:53:00,
2013-08-29 20:58:00,82.6,77.2,29.85,SE,135,3.0,3.0,84,0.00,,,0.00,meteohub,2013-08-30 00:58:00,
2013-08-29 21:03:00,82.6,77.2,29.85,South,180,1.0,3.0,84,0.00,,,0.00,meteohub,2013-08-30 01:03:00,
2013-08-29 21:08:00,82.6,77.5,29.85,East,90,1.0,4.0,85,0.00,,,0.00,meteohub,2013-08-30 01:08:00,
2013-08-29 21:13:00,82.4,77.7,29.85,South,180,2.0,4.0,86,0.00,,,0.00,meteohub,2013-08-30 01:13:00,
2013-08-29 21:19:00,82.4,77.7,29.85,South,180,1.0,4.0,86,0.00,,,0.00,meteohub,2013-08-30 01:19:00,
2013-08-29 21:24:00,82.2,77.5,29.85,SE,135,4.0,4.0,86,0.00,,,0.00,meteohub,2013-08-30 01:24:00,
2013-08-29 21:29:00,82.4,78.1,29.85,SSW,203,2.0,2.0,87,0.00,,,0.00,meteohub,2013-08-30 01:29:00,
2013-08-29 21:34:00,82.4,78.1,29.85,South,180,1.0,4.0,87,0.00,,,0.00,meteohub,2013-08-30 01:34:00,
2013-08-29 21:39:00,82.4,78.1,29.85,South,180,2.0,4.0,87,0.00,,,0.00,meteohub,2013-08-30 01:39:00,
2013-08-29 21:44:00,82.4,78.1,29.86,SE,135,2.0,3.0,87,0.00,,,0.00,meteohub,2013-08-30 01:44:00,
2013-08-29 21:49:00,82.2,78.3,29.86,South,180,1.0,4.0,88,0.00,,,0.00,meteohub,2013-08-30 01:49:00,
2013-08-29 21:54:00,82.0,78.1,29.86,South,180,2.0,4.0,88,0.00,,,0.00,meteohub,2013-08-30 01:54:00,
2013-08-29 21:59:00,82.0,78.4,29.86,South,180,2.0,4.0,89,0.00,,,0.00,meteohub,2013-08-30 01:59:00,
2013-08-29 22:04:00,82.0,78.4,29.86,South,180,1.0,4.0,89,0.00,,,0.00,meteohub,2013-08-30 02:04:00,
2013-08-29 22:10:00,82.0,78.4,29.87,South,180,1.0,2.0,89,0.00,,,0.00,meteohub,2013-08-30 02:10:00,
2013-08-29 22:15:00,81.9,78.3,29.87,South,180,1.0,2.0,89,0.00,,,0.00,meteohub,2013-08-30 02:15:00,
2013-08-29 22:20:00,81.9,78.3,29.87,SW,225,1.0,2.0,89,0.00,,,0.00,meteohub,2013-08-30 02:20:00,
2013-08-29 22:25:00,81.9,78.6,29.87,ESE,113,2.0,3.0,90,0.00,,,0.00,meteohub,2013-08-30 02:25:00,
2013-08-29 22:30:00,81.7,78.1,29.87,South,180,1.0,3.0,89,0.00,,,0.00,meteohub,2013-08-30 02:30:00,
2013-08-29 22:35:00,81.7,78.1,29.87,South,180,2.0,3.0,89,0.00,,,0.00,meteohub,2013-08-30 02:35:00,
2013-08-29 22:40:00,81.9,78.3,29.87,South,180,2.0,2.0,89,0.00,,,0.00,meteohub,2013-08-30 02:40:00,
2013-08-29 22:45:00,81.7,78.1,29.87,South,180,0.0,2.0,89,0.00,,,0.00,meteohub,2013-08-30 02:45:00,
2013-08-29 22:50:00,81.7,78.1,29.87,SW,225,1.0,2.0,89,0.00,,,0.00,meteohub,2013-08-30 02:50:00,
2013-08-29 22:55:00,81.5,78.3,29.87,SE,135,1.0,2.0,90,0.00,,,0.00,meteohub,2013-08-30 02:55:00,
2013-08-29 23:00:00,81.5,78.3,29.88,SW,225,1.0,2.0,90,0.00,,,0.00,meteohub,2013-08-30 03:00:00,
2013-08-29 23:06:00,81.3,78.1,29.88,South,180,1.0,2.0,90,0.00,,,0.00,meteohub,2013-08-30 03:06:00,
2013-08-29 23:11:00,81.3,78.1,29.87,South,180,1.0,2.0,90,0.00,,,0.00,meteohub,2013-08-30 03:11:00,
2013-08-29 23:16:00,81.5,78.3,29.87,South,180,1.0,2.0,90,0.00,,,0.00,meteohub,2013-08-30 03:16:00,
2013-08-29 23:21:00,81.5,78.3,29.87,SW,225,0.0,2.0,90,0.00,,,0.00,meteohub,2013-08-30 03:21:00,
2013-08-29 23:26:00,81.3,78.1,29.88,South,180,0.0,2.0,90,0.00,,,0.00,meteohub,2013-08-30 03:26:00,
2013-08-29 23:31:00,81.1,77.9,29.87,South,180,1.0,2.0,90,0.00,,,0.00,meteohub,2013-08-30 03:31:00,
2013-08-29 23:36:00,81.3,78.4,29.87,South,180,0.0,2.0,91,0.00,,,0.00,meteohub,2013-08-30 03:36:00,
2013-08-29 23:41:00,81.1,78.3,29.87,South,180,2.0,2.0,91,0.00,,,0.00,meteohub,2013-08-30 03:41:00,
2013-08-29 23:46:00,81.3,78.4,29.86,South,180,0.0,2.0,91,0.00,,,0.00,meteohub,2013-08-30 03:46:00,
2013-08-29 23:51:00,81.3,78.4,29.87,SW,225,2.0,2.0,91,0.00,,,0.00,meteohub,2013-08-30 03:51:00,
2013-08-29 23:57:00,81.3,78.1,29.87,SW,225,1.0,2.0,90,0.00,,,0.00,meteohub,2013-08-30 03:57:00,